Startpagina
METAR-TAF:

METAR-TAF

Vliegvelden :

Bamako, Mali

Luchthaven Bamako

breedte: 12-32N, lengte: 007-57W, hoogte: 380 m

Actueel weer

Dit bericht is 45 minuten geleden gemaakt, om 20:30 UTC
Weinig wind
Temperatuur 21°C
Vochtigheid 25%
Druk 1013 hPa
Zicht 10 km of meer
geen wolken onder 1500 m en geen cumulonimbus

METAR: GABS 162030Z 00000KT CAVOK 21/M00 Q1013 NOSIG

Tijdstip: 21:15 (21:15 UTC)

Verwachting

Dit bericht is 1 uur en het 35 minuten geleden gemaakt, om 19:40 UTC
Verwachting geldig van 16 om 20 UTC tot 17 om 24 UTC
Wind 2 kt uit het noordoosten met uitschieters tot 12 kt
Zicht 10 km of meer
geen wolken onder 1500 m en geen cumulonimbus
Kans 30% :
Tijdelijke
van 17 om 08 UTC tot 17 om 14 UTC
Zicht: 4500 m
Heiigheid

TAF: GABS 161940Z 1620/1724 05002G12KT CAVOK PROB30 TEMPO 1708/1714 4500 HZ

Waarnemingen en weersverwachtingen van meer dan 4000 vliegvelden (METAR en TAF).

De beschikbare stations zijn de gele en rode punten op de kaart.

Ga met uw muis naar het station om de naam te zien.

Klik dan om waarnemingen en weersverwachtingen te zien.

kaart wijzigen: klik op de groene knoppen met een zwart kruis om in te zoomen, op de groene knop met een streepje om uit te zoomen of op de groene pijlen voor aangrenzende kaarten.


METAR-TAF: